Time;durP1;ratioP1;P1;durP2;ratioP2;P2;SDS_P1;SDS_P2;PMS_P1;PMS_P2;Temp;Humidity;BMP_temperature;BMP_pressure;BME280_temperature;BME280_humidity;BME280_pressure;Samples;Min_cycle;Max_cycle;Signal;HPM_P1;HPM_P2
2021/07/10 00:01:08;;;;;;;8.00;4.05;;;;;;;;;;5025186;28;20029;-39
2021/07/10 00:03:36;;;;;;;10.68;3.33;;;;;;;;;;5018913;28;20588;-41
2021/07/10 00:06:03;;;;;;;15.63;3.78;;;;;;;;;;5038965;28;20030;-39
2021/07/10 00:08:32;;;;;;;14.68;4.63;;;;;;;;;;5026559;28;20021;-39
2021/07/10 00:10:59;;;;;;;9.02;4.35;;;;;;;;;;5005929;28;20040;-39
2021/07/10 00:13:26;;;;;;;10.02;4.18;;;;;;;;;;5020853;28;20026;-51
2021/07/10 00:15:54;;;;;;;9.50;4.45;;;;;;;;;;5028548;28;20096;-44
2021/07/10 00:18:22;;;;;;;10.50;4.13;;;;;;;;;;5032706;28;20021;-54
2021/07/10 00:20:49;;;;;;;13.35;4.03;;;;;;;;;;5041072;28;20076;-39
2021/07/10 00:23:17;;;;;;;11.00;4.07;;;;;;;;;;5059189;28;20029;-49
2021/07/10 00:25:44;;;;;;;8.77;3.83;;;;;;;;;;5048877;28;20021;-43
2021/07/10 00:28:12;;;;;;;7.18;4.07;;;;;;;;;;5045356;28;20032;-41
2021/07/10 00:30:39;;;;;;;9.80;3.58;;;;;;;;;;5059433;28;20132;-38
2021/07/10 00:33:07;;;;;;;9.10;3.58;;;;;;;;;;5047721;28;20046;-39
2021/07/10 00:35:35;;;;;;;10.15;4.68;;;;;;;;;;5060458;28;20183;-39
2021/07/10 00:38:03;;;;;;;8.80;4.40;;;;;;;;;;5042534;28;20126;-38
2021/07/10 00:40:30;;;;;;;10.93;4.10;;;;;;;;;;5044203;28;20033;-37
2021/07/10 00:42:57;;;;;;;12.18;4.32;;;;;;;;;;5042294;28;20174;-38
2021/07/10 00:45:25;;;;;;;11.57;4.53;;;;;;;;;;5043180;28;20044;-37
2021/07/10 00:47:52;;;;;;;8.40;4.28;;;;;;;;;;5038555;28;20013;-39
2021/07/10 00:50:21;;;;;;;11.90;4.07;;;;;;;;;;5059749;28;20032;-39
2021/07/10 00:52:48;;;;;;;11.98;3.95;;;;;;;;;;5046436;28;20044;-38
2021/07/10 00:55:16;;;;;;;12.27;3.63;;;;;;;;;;5032986;28;20035;-38
2021/07/10 00:57:44;;;;;;;12.27;3.85;;;;;;;;;;5044657;28;20029;-37
2021/07/10 01:00:15;;;;;;;10.07;4.63;;;;;;;;;;5040891;28;20063;-37
2021/07/10 01:02:43;;;;;;;6.75;3.70;;;;;;;;;;5060148;28;20412;-37
2021/07/10 01:05:12;;;;;;;10.88;3.83;;;;;;;;;;5041972;28;20032;-37
2021/07/10 01:07:39;;;;;;;13.63;4.22;;;;;;;;;;5044080;28;20025;-40
2021/07/10 01:10:08;;;;;;;9.02;3.88;;;;;;;;;;5040693;28;20674;-37
2021/07/10 01:12:35;;;;;;;7.65;4.25;;;;;;;;;;5049274;28;20090;-42
2021/07/10 01:15:03;;;;;;;12.95;4.63;;;;;;;;;;5047978;28;20538;-38
2021/07/10 01:17:30;;;;;;;12.23;4.38;;;;;;;;;;5053547;28;20035;-38
2021/07/10 01:19:58;;;;;;;13.40;5.13;;;;;;;;;;5053281;28;20349;-37
2021/07/10 01:22:25;;;;;;;18.80;5.15;;;;;;;;;;5050994;28;20113;-39
2021/07/10 01:24:52;;;;;;;14.43;5.53;;;;;;;;;;5046937;28;20112;-41
2021/07/10 01:27:19;;;;;;;16.50;6.53;;;;;;;;;;5044708;28;20557;-38
2021/07/10 01:29:48;;;;;;;18.98;6.13;;;;;;;;;;5041186;28;20064;-39
2021/07/10 01:32:18;;;;;;;13.57;5.78;;;;;;;;;;5048080;28;20025;-46
2021/07/10 01:34:49;;;;;;;16.63;6.05;;;;;;;;;;5046750;28;20028;-38
2021/07/10 01:37:17;;;;;;;16.55;5.95;;;;;;;;;;5049179;28;20112;-41
2021/07/10 01:39:44;;;;;;;15.60;6.93;;;;;;;;;;5053695;28;20013;-43
2021/07/10 01:42:12;;;;;;;12.38;6.30;;;;;;;;;;5044694;28;20501;-39
2021/07/10 01:44:39;;;;;;;14.43;6.50;;;;;;;;;;5044246;28;20041;-38
2021/07/10 01:47:07;;;;;;;18.33;7.38;;;;;;;;;;5041839;28;20770;-42
2021/07/10 01:49:34;;;;;;;15.80;7.05;;;;;;;;;;5047282;28;20388;-38
2021/07/10 01:52:01;;;;;;;23.50;7.55;;;;;;;;;;5043575;28;20064;-45
2021/07/10 01:54:28;;;;;;;19.83;6.90;;;;;;;;;;5044717;28;20040;-37
2021/07/10 01:56:55;;;;;;;15.63;7.53;;;;;;;;;;5047750;28;20103;-37
2021/07/10 01:59:22;;;;;;;18.63;7.40;;;;;;;;;;5040136;28;20033;-38
2021/07/10 02:01:50;;;;;;;21.45;7.10;;;;;;;;;;5042862;28;20052;-44
2021/07/10 02:04:19;;;;;;;14.82;6.97;;;;;;;;;;5043524;28;20031;-47
2021/07/10 02:06:47;;;;;;;16.65;6.45;;;;;;;;;;5044353;28;20017;-56
2021/07/10 02:09:15;;;;;;;17.00;6.68;;;;;;;;;;5047179;28;20052;-41
2021/07/10 02:11:51;;;;;;;12.70;6.25;;;;;;;;;;5038828;28;20040;-40
2021/07/10 02:14:20;;;;;;;18.15;6.38;;;;;;;;;;5047113;28;20069;-38
2021/07/10 02:16:48;;;;;;;18.83;6.60;;;;;;;;;;5048289;28;20025;-41
2021/07/10 02:19:17;;;;;;;12.25;5.85;;;;;;;;;;5052643;28;20052;-36
2021/07/10 02:21:44;;;;;;;14.55;6.57;;;;;;;;;;5030129;28;20037;-37
2021/07/10 02:24:12;;;;;;;11.60;5.45;;;;;;;;;;5026403;28;20075;-38
2021/07/10 02:26:39;;;;;;;18.67;6.05;;;;;;;;;;5026195;28;20017;-37
2021/07/10 02:29:07;;;;;;;12.98;6.00;;;;;;;;;;5024451;28;20081;-49
2021/07/10 02:31:35;;;;;;;11.45;5.18;;;;;;;;;;5028948;28;20045;-37
2021/07/10 02:34:03;;;;;;;14.43;5.70;;;;;;;;;;5026725;28;20476;-40
2021/07/10 02:36:30;;;;;;;15.75;4.93;;;;;;;;;;5037567;28;20025;-41
2021/07/10 02:38:57;;;;;;;13.50;5.25;;;;;;;;;;5027128;28;20025;-40
2021/07/10 02:41:25;;;;;;;8.80;4.80;;;;;;;;;;5026682;28;20022;-39
2021/07/10 02:43:52;;;;;;;12.30;5.50;;;;;;;;;;5026203;28;20041;-42
2021/07/10 02:46:19;;;;;;;14.10;4.93;;;;;;;;;;5022260;28;20018;-40
2021/07/10 02:48:47;;;;;;;13.18;4.75;;;;;;;;;;5024024;28;20022;-38
2021/07/10 02:51:15;;;;;;;9.18;4.82;;;;;;;;;;5026328;28;20033;-38
2021/07/10 02:53:42;;;;;;;9.77;4.13;;;;;;;;;;5025217;28;20105;-51
2021/07/10 02:56:10;;;;;;;17.77;4.70;;;;;;;;;;5025881;28;20416;-45
2021/07/10 02:58:38;;;;;;;10.35;4.53;;;;;;;;;;5025499;28;20061;-46
2021/07/10 03:01:06;;;;;;;10.75;3.92;;;;;;;;;;5029011;28;20427;-52
2021/07/10 03:03:33;;;;;;;12.50;3.80;;;;;;;;;;5026303;28;20018;-40
2021/07/10 03:06:00;;;;;;;8.07;4.07;;;;;;;;;;5025645;28;20080;-38
2021/07/10 03:08:28;;;;;;;12.52;4.72;;;;;;;;;;5024884;28;20043;-43
2021/07/10 03:10:55;;;;;;;14.80;4.28;;;;;;;;;;5027093;28;20384;-47
2021/07/10 03:13:23;;;;;;;11.55;4.10;;;;;;;;;;4993592;28;20508;-40
2021/07/10 03:15:50;;;;;;;12.68;4.30;;;;;;;;;;5016085;28;20488;-40
2021/07/10 03:18:18;;;;;;;9.15;3.88;;;;;;;;;;5029647;28;20022;-39
2021/07/10 03:20:45;;;;;;;8.60;4.10;;;;;;;;;;5022074;28;20500;-38
2021/07/10 03:23:12;;;;;;;6.38;3.47;;;;;;;;;;5022071;28;20025;-40
2021/07/10 03:25:41;;;;;;;10.10;3.30;;;;;;;;;;5041255;28;20108;-38
2021/07/10 03:28:09;;;;;;;9.10;3.85;;;;;;;;;;5057140;28;20025;-39
2021/07/10 03:30:36;;;;;;;13.32;3.85;;;;;;;;;;5038153;28;20035;-39
2021/07/10 03:33:04;;;;;;;8.88;3.28;;;;;;;;;;5037647;28;20021;-37
2021/07/10 03:35:32;;;;;;;9.63;4.00;;;;;;;;;;5063555;28;20428;-38
2021/07/10 03:38:00;;;;;;;13.02;3.20;;;;;;;;;;5044135;28;21201;-38
2021/07/10 03:40:28;;;;;;;11.63;3.58;;;;;;;;;;5047328;28;20075;-39
2021/07/10 03:42:56;;;;;;;7.03;3.58;;;;;;;;;;5045723;28;20057;-38
2021/07/10 03:45:23;;;;;;;7.10;2.92;;;;;;;;;;5045749;28;20029;-38
2021/07/10 03:47:51;;;;;;;12.15;3.70;;;;;;;;;;5011475;28;20036;-38
2021/07/10 03:50:19;;;;;;;9.02;3.22;;;;;;;;;;5022541;28;20489;-38
2021/07/10 03:52:47;;;;;;;8.48;3.13;;;;;;;;;;5050515;28;20036;-37
2021/07/10 03:55:15;;;;;;;7.30;3.03;;;;;;;;;;5050834;28;20028;-35
2021/07/10 03:57:43;;;;;;;10.27;3.08;;;;;;;;;;5047413;28;20040;-36
2021/07/10 04:00:29;;;;;;;7.45;2.90;;;;;;;;;;5012568;28;20037;-37
2021/07/10 04:02:56;;;;;;;7.13;2.53;;;;;;;;;;5047843;28;20033;-38
2021/07/10 04:05:24;;;;;;;6.38;2.70;;;;;;;;;;5047525;28;20021;-41
2021/07/10 04:07:51;;;;;;;8.88;3.05;;;;;;;;;;5049925;28;20040;-37
2021/07/10 04:10:19;;;;;;;4.82;2.35;;;;;;;;;;5070550;28;20021;-37
2021/07/10 04:12:47;;;;;;;6.32;2.40;;;;;;;;;;5071478;28;20028;-37
2021/07/10 04:15:15;;;;;;;6.03;2.58;;;;;;;;;;5071790;28;20069;-54
2021/07/10 04:17:43;;;;;;;6.57;2.42;;;;;;;;;;5069227;28;20028;-38
2021/07/10 04:20:11;;;;;;;6.15;2.50;;;;;;;;;;5067637;28;20059;-37
2021/07/10 04:22:38;;;;;;;7.47;2.35;;;;;;;;;;5071691;28;20108;-44
2021/07/10 04:25:07;;;;;;;5.88;2.35;;;;;;;;;;5071738;28;20503;-38
2021/07/10 04:27:35;;;;;;;7.38;2.40;;;;;;;;;;5053541;28;20024;-38
2021/07/10 04:30:04;;;;;;;8.18;2.63;;;;;;;;;;5064889;28;20039;-37
2021/07/10 04:32:31;;;;;;;18.00;2.75;;;;;;;;;;5071609;28;20107;-38
2021/07/10 04:35:00;;;;;;;16.70;2.50;;;;;;;;;;5071453;28;20029;-37
2021/07/10 04:37:27;;;;;;;4.10;2.10;;;;;;;;;;5042259;28;20120;-38
2021/07/10 04:39:55;;;;;;;9.25;2.30;;;;;;;;;;5045127;28;20472;-37
2021/07/10 04:42:24;;;;;;;5.65;2.33;;;;;;;;;;5052086;28;20106;-58
2021/07/10 04:44:51;;;;;;;5.85;2.00;;;;;;;;;;5051478;28;20048;-53
2021/07/10 04:47:19;;;;;;;5.50;2.13;;;;;;;;;;5051062;28;20029;-52
2021/07/10 04:49:46;;;;;;;4.78;2.15;;;;;;;;;;5050898;28;20020;-44
2021/07/10 04:52:13;;;;;;;8.73;2.35;;;;;;;;;;5051933;28;20115;-38
2021/07/10 04:54:40;;;;;;;2.63;1.90;;;;;;;;;;5051655;28;20028;-50
2021/07/10 04:57:08;;;;;;;4.53;1.95;;;;;;;;;;5033775;28;20706;-53
2021/07/10 04:59:35;;;;;;;2.40;1.67;;;;;;;;;;5049573;28;20049;-47
2021/07/10 05:02:03;;;;;;;3.22;1.55;;;;;;;;;;5051091;28;20468;-57
2021/07/10 05:04:30;;;;;;;5.40;1.70;;;;;;;;;;5033580;28;20052;-53
2021/07/10 05:06:57;;;;;;;7.20;1.83;;;;;;;;;;5051267;28;20029;-46
2021/07/10 05:09:24;;;;;;;4.85;1.77;;;;;;;;;;5049092;28;20023;-46
2021/07/10 05:11:51;;;;;;;5.28;1.70;;;;;;;;;;5051518;28;20084;-44
2021/07/10 05:14:18;;;;;;;3.75;1.60;;;;;;;;;;5051844;28;20475;-49
2021/07/10 05:16:47;;;;;;;10.00;1.63;;;;;;;;;;5050742;28;20029;-44
2021/07/10 05:19:14;;;;;;;5.93;1.42;;;;;;;;;;5050079;28;20484;-44
2021/07/10 05:21:41;;;;;;;4.25;1.50;;;;;;;;;;5049617;28;20091;-48
2021/07/10 05:24:08;;;;;;;4.25;1.60;;;;;;;;;;5051591;28;20032;-39
2021/07/10 05:26:35;;;;;;;3.05;1.33;;;;;;;;;;5051323;28;20021;-41
2021/07/10 05:29:04;;;;;;;8.55;1.63;;;;;;;;;;5051339;28;20021;-49
2021/07/10 05:31:31;;;;;;;4.00;1.40;;;;;;;;;;5048960;28;20040;-42
2021/07/10 05:33:58;;;;;;;2.80;1.17;;;;;;;;;;5051298;28;20018;-42
2021/07/10 05:36:25;;;;;;;7.05;1.38;;;;;;;;;;5051739;28;20503;-41
2021/07/10 05:38:52;;;;;;;3.92;1.48;;;;;;;;;;5051196;28;20029;-45
2021/07/10 05:41:19;;;;;;;5.88;1.48;;;;;;;;;;5051214;28;20534;-44
2021/07/10 05:43:46;;;;;;;4.28;1.25;;;;;;;;;;5071673;28;20506;-45
2021/07/10 05:46:13;;;;;;;5.50;1.25;;;;;;;;;;5071350;28;20527;-44
2021/07/10 05:48:40;;;;;;;3.90;1.35;;;;;;;;;;5073064;28;20024;-51
2021/07/10 05:51:08;;;;;;;3.10;1.20;;;;;;;;;;5071841;28;20379;-44
2021/07/10 05:53:35;;;;;;;2.17;1.00;;;;;;;;;;5053850;28;20029;-44
2021/07/10 05:56:02;;;;;;;2.65;1.27;;;;;;;;;;5054933;28;20392;-44
2021/07/10 05:58:29;;;;;;;2.55;1.23;;;;;;;;;;5054491;28;20564;-58
2021/07/10 06:00:56;;;;;;;1.98;1.05;;;;;;;;;;5054681;28;20017;-53
2021/07/10 06:03:23;;;;;;;2.58;1.10;;;;;;;;;;5065349;28;20020;-54
2021/07/10 06:05:50;;;;;;;4.28;1.08;;;;;;;;;;5075227;28;20021;-50
2021/07/10 06:08:17;;;;;;;1.83;0.90;;;;;;;;;;5057095;28;20031;-59
2021/07/10 06:10:44;;;;;;;3.38;1.65;;;;;;;;;;5069191;28;20061;-59
2021/07/10 06:13:11;;;;;;;3.63;1.15;;;;;;;;;;5053014;28;20476;-39
2021/07/10 06:15:38;;;;;;;3.00;1.00;;;;;;;;;;5054738;28;20044;-48
2021/07/10 06:18:05;;;;;;;2.05;0.95;;;;;;;;;;5054170;28;20025;-45
2021/07/10 06:20:34;;;;;;;3.17;1.00;;;;;;;;;;5048297;28;20068;-44
2021/07/10 06:23:04;;;;;;;2.80;0.90;;;;;;;;;;5029971;28;20496;-49
2021/07/10 06:25:32;;;;;;;1.52;0.80;;;;;;;;;;5034565;28;20022;-39
2021/07/10 06:28:00;;;;;;;2.45;0.90;;;;;;;;;;5033745;28;20022;-42
2021/07/10 06:30:27;;;;;;;3.30;1.20;;;;;;;;;;5034032;28;20033;-40
2021/07/10 06:32:54;;;;;;;2.17;0.80;;;;;;;;;;5029033;28;20061;-40
2021/07/10 06:35:21;;;;;;;3.83;1.00;;;;;;;;;;5034352;28;20021;-44
2021/07/10 06:37:49;;;;;;;2.08;0.80;;;;;;;;;;5034306;28;20050;-47
2021/07/10 06:40:17;;;;;;;2.65;1.08;;;;;;;;;;5033975;28;20032;-42
2021/07/10 06:42:44;;;;;;;1.50;0.85;;;;;;;;;;5029420;28;20037;-49
2021/07/10 06:45:13;;;;;;;1.52;0.82;;;;;;;;;;5034337;28;20064;-43
2021/07/10 06:47:41;;;;;;;2.88;0.90;;;;;;;;;;5034119;28;20164;-42
2021/07/10 06:50:09;;;;;;;1.38;0.73;;;;;;;;;;5033008;28;20029;-46
2021/07/10 06:52:36;;;;;;;3.50;1.08;;;;;;;;;;5030991;28;20038;-38
2021/07/10 06:55:05;;;;;;;1.77;0.70;;;;;;;;;;5032197;28;20477;-43
2021/07/10 06:57:32;;;;;;;1.75;0.90;;;;;;;;;;5033923;28;20050;-40
2021/07/10 06:59:59;;;;;;;1.23;0.80;;;;;;;;;;5033351;28;20021;-40
2021/07/10 07:02:26;;;;;;;3.10;1.00;;;;;;;;;;5033520;28;20041;-39
2021/07/10 07:04:53;;;;;;;3.20;1.10;;;;;;;;;;5029476;28;20052;-40
2021/07/10 07:07:20;;;;;;;1.30;0.80;;;;;;;;;;5033627;28;20423;-38
2021/07/10 07:09:47;;;;;;;3.47;0.93;;;;;;;;;;5033318;28;20029;-47
2021/07/10 07:12:14;;;;;;;3.78;0.77;;;;;;;;;;5033118;28;20029;-42
2021/07/10 07:14:41;;;;;;;1.00;0.68;;;;;;;;;;5028583;28;20032;-40
2021/07/10 07:17:08;;;;;;;2.95;0.60;;;;;;;;;;5033615;28;20504;-41
2021/07/10 07:19:35;;;;;;;0.93;0.68;;;;;;;;;;5033152;28;20029;-44
2021/07/10 07:22:02;;;;;;;1.42;0.70;;;;;;;;;;5050955;28;20043;-40
2021/07/10 07:24:29;;;;;;;1.33;0.70;;;;;;;;;;5051293;28;20090;-42
2021/07/10 07:26:56;;;;;;;1.67;0.70;;;;;;;;;;5052735;28;20025;-44
2021/07/10 07:29:23;;;;;;;1.30;0.70;;;;;;;;;;5052613;28;20029;-40
2021/07/10 07:31:50;;;;;;;1.67;0.57;;;;;;;;;;5052345;28;20133;-38
2021/07/10 07:34:17;;;;;;;1.50;0.70;;;;;;;;;;5049334;28;20024;-42
2021/07/10 07:37:00;;;;;;;1.83;0.80;;;;;;;;;;5052860;28;20512;-47
2021/07/10 07:39:27;;;;;;;2.00;0.70;;;;;;;;;;5052907;28;20392;-40
2021/07/10 07:41:54;;;;;;;2.60;1.00;;;;;;;;;;5052583;28;20475;-40
2021/07/10 07:44:21;;;;;;;3.83;0.75;;;;;;;;;;5049723;28;20040;-41
2021/07/10 07:46:48;;;;;;;1.15;0.57;;;;;;;;;;5053010;28;20012;-40
2021/07/10 07:49:15;;;;;;;1.05;0.60;;;;;;;;;;5052690;28;20035;-42
2021/07/10 07:51:42;;;;;;;1.92;0.80;;;;;;;;;;5052848;28;20035;-43
2021/07/10 07:54:09;;;;;;;2.00;0.50;;;;;;;;;;5051304;28;20051;-39
2021/07/10 07:56:36;;;;;;;1.15;0.70;;;;;;;;;;5070815;28;20024;-39
2021/07/10 07:59:05;;;;;;;3.05;0.65;;;;;;;;;;5072575;28;20028;-40
2021/07/10 08:01:32;;;;;;;1.45;0.60;;;;;;;;;;5072539;28;20016;-38
2021/07/10 08:03:59;;;;;;;1.05;0.60;;;;;;;;;;5071321;28;20093;-43
2021/07/10 08:06:26;;;;;;;0.40;0.40;;;;;;;;;;5050440;28;20485;-43
2021/07/10 08:08:53;;;;;;;2.97;0.90;;;;;;;;;;5052720;28;20495;-41
2021/07/10 08:11:20;;;;;;;2.78;0.93;;;;;;;;;;5051529;28;20496;-41
2021/07/10 08:13:48;;;;;;;0.70;0.50;;;;;;;;;;5051876;28;20036;-45
2021/07/10 08:16:15;;;;;;;0.82;0.43;;;;;;;;;;5050084;28;20416;-43
2021/07/10 08:18:42;;;;;;;2.25;0.55;;;;;;;;;;5052643;28;20024;-38
2021/07/10 08:21:09;;;;;;;0.68;0.45;;;;;;;;;;5051980;28;20508;-45
2021/07/10 08:23:36;;;;;;;1.35;0.47;;;;;;;;;;5051917;28;20029;-46
2021/07/10 08:26:03;;;;;;;0.70;0.50;;;;;;;;;;5058586;28;20119;-52
2021/07/10 08:28:31;;;;;;;1.98;0.43;;;;;;;;;;5072235;28;20031;-43
2021/07/10 08:30:58;;;;;;;0.90;0.50;;;;;;;;;;5071959;28;20391;-52
2021/07/10 08:33:25;;;;;;;1.98;0.75;;;;;;;;;;5071917;28;20020;-40
2021/07/10 08:35:52;;;;;;;1.75;0.68;;;;;;;;;;5065558;28;20472;-42
2021/07/10 08:38:19;;;;;;;0.98;0.63;;;;;;;;;;5072382;28;21051;-39
2021/07/10 08:40:46;;;;;;;1.98;0.50;;;;;;;;;;5072172;28;20047;-38
2021/07/10 08:43:14;;;;;;;1.38;0.80;;;;;;;;;;5071738;28;20423;-40
2021/07/10 08:45:45;;;;;;;1.63;0.47;;;;;;;;;;5063191;28;21554;-49
2021/07/10 08:48:12;;;;;;;0.82;0.50;;;;;;;;;;5051689;28;20064;-47
2021/07/10 08:50:39;;;;;;;2.28;0.50;;;;;;;;;;5051628;28;20025;-39
2021/07/10 08:53:07;;;;;;;1.35;0.60;;;;;;;;;;5051220;28;20108;-39
2021/07/10 08:55:36;;;;;;;0.95;0.60;;;;;;;;;;5050813;28;20506;-38
2021/07/10 08:58:04;;;;;;;0.85;0.43;;;;;;;;;;5051902;28;20384;-38
2021/07/10 09:00:33;;;;;;;0.73;0.40;;;;;;;;;;5052000;28;20471;-39
2021/07/10 09:03:01;;;;;;;1.05;0.40;;;;;;;;;;5051081;28;20028;-39
2021/07/10 09:05:28;;;;;;;0.75;0.40;;;;;;;;;;5050837;28;20024;-38
2021/07/10 09:08:20;;;;;;;0.57;0.40;;;;;;;;;;5051089;28;20036;-40
2021/07/10 09:10:50;;;;;;;3.15;0.60;;;;;;;;;;5051339;28;20207;-38
2021/07/10 09:13:18;;;;;;;0.65;0.47;;;;;;;;;;5050922;28;20074;-38
2021/07/10 09:15:45;;;;;;;0.80;0.50;;;;;;;;;;5050272;28;20503;-38
2021/07/10 09:18:13;;;;;;;1.02;0.50;;;;;;;;;;5049370;28;20036;-37
2021/07/10 09:20:41;;;;;;;1.15;0.63;;;;;;;;;;5051338;28;20048;-38
2021/07/10 09:23:26;;;;;;;0.68;0.40;;;;;;;;;;5054582;28;20387;-40
2021/07/10 09:25:53;;;;;;;1.15;0.63;;;;;;;;;;5055104;28;20025;-38
2021/07/10 09:28:30;;;;;;;0.70;0.32;;;;;;;;;;5069813;28;20024;-38
2021/07/10 09:30:57;;;;;;;1.30;0.60;;;;;;;;;;5075255;28;20466;-38
2021/07/10 09:33:24;;;;;;;0.60;0.40;;;;;;;;;;5075153;28;20383;-42
2021/07/10 09:35:59;;;;;;;0.68;0.45;;;;;;;;;;5075351;28;20040;-39
2021/07/10 09:38:27;;;;;;;1.40;0.50;;;;;;;;;;5054429;28;20017;-41
2021/07/10 09:40:59;;;;;;;2.45;0.50;;;;;;;;;;5055340;28;20036;-40
2021/07/10 09:43:27;;;;;;;0.93;0.40;;;;;;;;;;5054856;28;20048;-41
2021/07/10 09:45:54;;;;;;;1.10;0.50;;;;;;;;;;5055046;28;20085;-40
2021/07/10 09:48:26;;;;;;;1.38;0.57;;;;;;;;;;5064688;28;20052;-37
2021/07/10 09:51:13;;;;;;;4.57;0.50;;;;;;;;;;5075136;28;20145;-41
2021/07/10 09:53:40;;;;;;;0.57;0.40;;;;;;;;;;5074613;28;20048;-40
2021/07/10 09:56:11;;;;;;;0.98;0.63;;;;;;;;;;5074423;28;20100;-39
2021/07/10 09:58:40;;;;;;;0.70;0.40;;;;;;;;;;5057643;28;20357;-38
2021/07/10 10:01:29;;;;;;;1.17;0.40;;;;;;;;;;5054646;28;20028;-38
2021/07/10 10:03:56;;;;;;;0.80;0.30;;;;;;;;;;5042041;28;20044;-38
2021/07/10 10:06:34;;;;;;;1.27;0.65;;;;;;;;;;5054575;28;20028;-38
2021/07/10 10:09:01;;;;;;;1.20;0.60;;;;;;;;;;5066858;28;20107;-38
2021/07/10 10:11:46;;;;;;;1.20;0.60;;;;;;;;;;5074744;28;20654;-38
2021/07/10 10:14:13;;;;;;;1.05;0.52;;;;;;;;;;5074665;28;20029;-38
2021/07/10 10:16:46;;;;;;;2.28;0.43;;;;;;;;;;5074386;28;20036;-38
2021/07/10 10:19:22;;;;;;;1.63;0.60;;;;;;;;;;5066419;28;20020;-40
2021/07/10 10:21:51;;;;;;;1.98;0.65;;;;;;;;;;5074542;28;20061;-39
2021/07/10 10:24:18;;;;;;;1.80;0.50;;;;;;;;;;5074453;28;20063;-38
2021/07/10 10:26:46;;;;;;;1.25;0.50;;;;;;;;;;5074334;28;20020;-47
2021/07/10 10:29:16;;;;;;;2.47;0.75;;;;;;;;;;5056380;28;20108;-40
2021/07/10 10:31:44;;;;;;;2.58;0.60;;;;;;;;;;5054468;28;20028;-38
2021/07/10 10:34:11;;;;;;;0.82;0.52;;;;;;;;;;5053311;28;20024;-38
2021/07/10 10:36:39;;;;;;;2.40;0.40;;;;;;;;;;5036275;28;20021;-38
2021/07/10 10:39:11;;;;;;;0.95;0.47;;;;;;;;;;5052036;28;20032;-37
2021/07/10 10:41:41;;;;;;;1.33;0.52;;;;;;;;;;5054488;28;20451;-38
2021/07/10 10:44:08;;;;;;;1.50;0.60;;;;;;;;;;5053767;28;20020;-39
2021/07/10 10:46:46;;;;;;;0.80;0.40;;;;;;;;;;5053946;28;20465;-39
2021/07/10 10:49:31;;;;;;;1.05;0.60;;;;;;;;;;5052065;28;20353;-38
2021/07/10 10:52:18;;;;;;;0.95;0.40;;;;;;;;;;5053926;28;20480;-38
2021/07/10 10:54:50;;;;;;;2.13;0.60;;;;;;;;;;5025740;28;20480;-38
2021/07/10 10:57:17;;;;;;;0.52;0.40;;;;;;;;;;5053376;28;20041;-38
2021/07/10 10:59:45;;;;;;;0.57;0.35;;;;;;;;;;5058899;28;20016;-38
2021/07/10 11:02:27;;;;;;;1.40;0.40;;;;;;;;;;5073543;28;20357;-39
2021/07/10 11:04:57;;;;;;;0.50;0.30;;;;;;;;;;5073221;28;20167;-38
2021/07/10 11:07:25;;;;;;;2.08;0.70;;;;;;;;;;5066760;28;20491;-39
2021/07/10 11:10:04;;;;;;;2.97;0.60;;;;;;;;;;5051581;28;20029;-48
2021/07/10 11:12:49;;;;;;;1.60;0.50;;;;;;;;;;5053183;28;20033;-41
2021/07/10 11:15:26;;;;;;;2.10;0.57;;;;;;;;;;5053126;28;20051;-41
2021/07/10 11:17:56;;;;;;;1.00;0.50;;;;;;;;;;5052773;28;20025;-39
2021/07/10 11:20:44;;;;;;;2.13;0.47;;;;;;;;;;5062314;28;20526;-43
2021/07/10 11:23:32;;;;;;;0.75;0.47;;;;;;;;;;5072638;28;20059;-37
2021/07/10 11:25:59;;;;;;;2.15;0.68;;;;;;;;;;5044334;28;20112;-40
2021/07/10 11:28:27;;;;;;;3.33;0.40;;;;;;;;;;5046649;28;20023;-40
2021/07/10 11:30:59;;;;;;;3.30;0.50;;;;;;;;;;5050670;28;20029;-38
2021/07/10 11:33:44;;;;;;;3.13;0.60;;;;;;;;;;5042256;28;20022;-38
2021/07/10 11:36:46;;;;;;;0.77;0.40;;;;;;;;;;5039760;28;20036;-40
2021/07/10 11:39:32;;;;;;;1.35;0.60;;;;;;;;;;4977573;28;20092;-38
2021/07/10 11:42:32;;;;;;;1.85;0.50;;;;;;;;;;5050881;28;20033;-38
2021/07/10 11:45:12;;;;;;;1.20;0.60;;;;;;;;;;5034542;28;20040;-44
2021/07/10 11:47:41;;;;;;;0.93;0.40;;;;;;;;;;5049326;28;20041;-43
2021/07/10 11:50:19;;;;;;;1.85;0.45;;;;;;;;;;5046800;28;20037;-38
2021/07/10 11:53:04;;;;;;;0.95;0.47;;;;;;;;;;5059739;28;20028;-38
2021/07/10 11:55:33;;;;;;;2.28;0.50;;;;;;;;;;5056755;28;20029;-40
2021/07/10 11:58:08;;;;;;;2.03;0.70;;;;;;;;;;5056778;28;20063;-39
2021/07/10 12:00:35;;;;;;;3.20;0.90;;;;;;;;;;5063764;28;20546;-38
2021/07/10 12:03:02;;;;;;;5.53;0.80;;;;;;;;;;5072401;28;20542;-41
2021/07/10 12:05:33;;;;;;;3.30;0.60;;;;;;;;;;5054703;28;20024;-39
2021/07/10 12:08:09;;;;;;;1.73;0.55;;;;;;;;;;5088810;27;20415;-38
2021/07/10 12:10:38;;;;;;;2.38;0.40;;;;;;;;;;5083003;28;21719;-38
2021/07/10 12:13:08;;;;;;;2.90;0.57;;;;;;;;;;5089108;28;20468;-38
2021/07/10 12:15:38;;;;;;;4.78;0.90;;;;;;;;;;5089193;28;20035;-38
2021/07/10 12:18:06;;;;;;;1.80;0.70;;;;;;;;;;5070874;28;20020;-39
2021/07/10 12:20:34;;;;;;;6.22;0.90;;;;;;;;;;5064823;28;20033;-38
2021/07/10 12:23:01;;;;;;;4.78;0.98;;;;;;;;;;5067228;28;20017;-39
2021/07/10 12:25:33;;;;;;;3.30;0.70;;;;;;;;;;5068832;28;20107;-38
2021/07/10 12:28:06;;;;;;;1.60;0.65;;;;;;;;;;5067549;28;20033;-39
2021/07/10 12:30:37;;;;;;;2.80;0.80;;;;;;;;;;5067419;28;20024;-37
2021/07/10 12:33:05;;;;;;;1.80;0.73;;;;;;;;;;5066016;28;20027;-39
2021/07/10 12:35:32;;;;;;;2.08;0.90;;;;;;;;;;5068817;28;20104;-37
2021/07/10 12:38:11;;;;;;;3.00;1.15;;;;;;;;;;5068297;28;20036;-39
2021/07/10 12:40:38;;;;;;;4.00;1.10;;;;;;;;;;5068281;28;20446;-41
2021/07/10 12:43:05;;;;;;;4.28;1.70;;;;;;;;;;5064320;28;20027;-39
2021/07/10 12:45:32;;;;;;;2.15;0.85;;;;;;;;;;5068668;28;20031;-39
2021/07/10 12:48:02;;;;;;;4.35;1.40;;;;;;;;;;5067905;28;20040;-43
2021/07/10 12:50:29;;;;;;;2.75;0.90;;;;;;;;;;5066929;28;20455;-45
2021/07/10 12:53:05;;;;;;;1.55;0.80;;;;;;;;;;5063800;28;20033;-40
2021/07/10 12:55:48;;;;;;;3.33;1.02;;;;;;;;;;5068365;28;20028;-41
2021/07/10 12:58:15;;;;;;;3.30;1.15;;;;;;;;;;5068174;28;20025;-40
2021/07/10 13:00:42;;;;;;;2.67;0.90;;;;;;;;;;5066957;28;20115;-39
2021/07/10 13:03:16;;;;;;;2.45;1.00;;;;;;;;;;5063015;28;20488;-39
2021/07/10 13:05:44;;;;;;;1.20;0.90;;;;;;;;;;5067636;28;20119;-37
2021/07/10 13:08:14;;;;;;;1.70;0.90;;;;;;;;;;5067815;28;20060;-37
2021/07/10 13:10:43;;;;;;;1.10;0.80;;;;;;;;;;5067692;28;20052;-38
2021/07/10 13:13:13;;;;;;;2.25;1.08;;;;;;;;;;5063049;28;20500;-38
2021/07/10 13:15:44;;;;;;;3.33;1.30;;;;;;;;;;5067685;28;20039;-37
2021/07/10 13:18:13;;;;;;;3.97;1.00;;;;;;;;;;5061281;28;20388;-38
2021/07/10 13:20:42;;;;;;;2.20;1.00;;;;;;;;;;5054295;28;20029;-38
2021/07/10 13:23:09;;;;;;;2.20;0.82;;;;;;;;;;5049780;28;20027;-39
2021/07/10 13:25:44;;;;;;;3.80;0.85;;;;;;;;;;5054311;28;20025;-38
2021/07/10 13:28:37;;;;;;;2.13;0.90;;;;;;;;;;5054104;28;20072;-39
2021/07/10 13:31:23;;;;;;;2.83;0.88;;;;;;;;;;5053559;28;20036;-43
2021/07/10 13:33:52;;;;;;;1.95;0.80;;;;;;;;;;5049284;28;20028;-37
2021/07/10 13:36:23;;;;;;;1.48;0.70;;;;;;;;;;5053600;28;20111;-38
2021/07/10 13:38:52;;;;;;;2.25;1.00;;;;;;;;;;5053538;28;20464;-41
2021/07/10 13:41:21;;;;;;;2.08;0.95;;;;;;;;;;5053481;28;20032;-38
2021/07/10 13:43:58;;;;;;;2.08;0.90;;;;;;;;;;5048452;28;20013;-41
2021/07/10 13:46:29;;;;;;;1.73;0.85;;;;;;;;;;5053425;28;20029;-38
2021/07/10 13:48:56;;;;;;;2.72;0.80;;;;;;;;;;5050997;28;20028;-38
2021/07/10 13:51:24;;;;;;;1.77;0.73;;;;;;;;;;5052777;28;20146;-38
2021/07/10 13:53:52;;;;;;;2.10;0.75;;;;;;;;;;5048348;28;20049;-39
2021/07/10 13:56:20;;;;;;;3.95;0.73;;;;;;;;;;5053235;28;20416;-41
2021/07/10 13:59:03;;;;;;;2.42;0.90;;;;;;;;;;5050216;28;20104;-37
2021/07/10 14:01:30;;;;;;;4.50;1.00;;;;;;;;;;5051791;28;20076;-39
2021/07/10 14:03:57;;;;;;;2.25;0.73;;;;;;;;;;5047596;28;20131;-38
2021/07/10 14:06:24;;;;;;;1.52;0.90;;;;;;;;;;5051818;28;20072;-37
2021/07/10 14:08:51;;;;;;;1.27;0.75;;;;;;;;;;5052912;28;20465;-43
2021/07/10 14:11:18;;;;;;;1.05;0.60;;;;;;;;;;5052140;28;20338;-47
2021/07/10 14:13:45;;;;;;;2.25;0.75;;;;;;;;;;5047816;28;20033;-39
2021/07/10 14:16:12;;;;;;;2.28;0.90;;;;;;;;;;5050262;28;20017;-53
2021/07/10 14:18:39;;;;;;;1.55;0.70;;;;;;;;;;5052731;28;20017;-40
2021/07/10 14:21:06;;;;;;;1.67;0.82;;;;;;;;;;5053045;28;20025;-47
2021/07/10 14:23:34;;;;;;;1.92;0.70;;;;;;;;;;5048889;28;20044;-41
2021/07/10 14:26:01;;;;;;;2.45;0.80;;;;;;;;;;5051494;28;20074;-39
2021/07/10 14:28:29;;;;;;;2.63;1.00;;;;;;;;;;5052987;28;20029;-37
2021/07/10 14:30:56;;;;;;;1.05;0.57;;;;;;;;;;5051306;28;20021;-38
2021/07/10 14:33:23;;;;;;;2.13;0.60;;;;;;;;;;5051003;28;20357;-37
2021/07/10 14:35:50;;;;;;;1.92;0.80;;;;;;;;;;5049121;28;20446;-55
2021/07/10 14:38:18;;;;;;;1.52;0.70;;;;;;;;;;5052870;28;20495;-46
2021/07/10 14:40:45;;;;;;;1.13;0.50;;;;;;;;;;5052858;28;20021;-38
2021/07/10 14:43:13;;;;;;;3.00;0.70;;;;;;;;;;5052732;28;20021;-53
2021/07/10 14:45:41;;;;;;;1.40;0.55;;;;;;;;;;5048025;28;20124;-42
2021/07/10 14:48:08;;;;;;;1.30;0.60;;;;;;;;;;5052477;28;20040;-46
2021/07/10 14:50:35;;;;;;;1.92;0.70;;;;;;;;;;5051202;28;20111;-39
2021/07/10 14:53:05;;;;;;;1.33;0.70;;;;;;;;;;5052465;28;20389;-40